sensor_id;sensor_type;location;lat;lon;timestamp;P1;durP1;ratioP1;P2;durP2;ratioP2
11111;SDS011;5609;49.466;8.468;2023-09-18T00:00:23;3.60;;;3.30;;
11111;SDS011;5609;49.466;8.468;2023-09-18T00:02:50;5.20;;;3.60;;
11111;SDS011;5609;49.466;8.468;2023-09-18T00:05:17;3.93;;;3.30;;
11111;SDS011;5609;49.466;8.468;2023-09-18T00:07:45;3.43;;;3.13;;
11111;SDS011;5609;49.466;8.468;2023-09-18T00:10:12;4.90;;;3.00;;
11111;SDS011;5609;49.466;8.468;2023-09-18T00:12:40;4.60;;;3.00;;
11111;SDS011;5609;49.466;8.468;2023-09-18T00:15:07;3.20;;;2.90;;
11111;SDS011;5609;49.466;8.468;2023-09-18T00:17:34;3.57;;;2.57;;
11111;SDS011;5609;49.466;8.468;2023-09-18T00:20:01;5.67;;;2.90;;
11111;SDS011;5609;49.466;8.468;2023-09-18T00:22:30;3.03;;;2.70;;
11111;SDS011;5609;49.466;8.468;2023-09-18T00:24:58;3.13;;;2.70;;
11111;SDS011;5609;49.466;8.468;2023-09-18T00:27:26;2.93;;;2.63;;
11111;SDS011;5609;49.466;8.468;2023-09-18T00:29:53;4.20;;;3.17;;
11111;SDS011;5609;49.466;8.468;2023-09-18T00:32:20;3.97;;;3.27;;
11111;SDS011;5609;49.466;8.468;2023-09-18T00:34:47;4.13;;;2.80;;
11111;SDS011;5609;49.466;8.468;2023-09-18T00:37:14;3.10;;;2.90;;
11111;SDS011;5609;49.466;8.468;2023-09-18T00:39:41;4.70;;;3.10;;
11111;SDS011;5609;49.466;8.468;2023-09-18T00:42:10;4.20;;;3.10;;
11111;SDS011;5609;49.466;8.468;2023-09-18T00:44:38;3.30;;;3.00;;
11111;SDS011;5609;49.466;8.468;2023-09-18T00:47:06;4.80;;;2.90;;
11111;SDS011;5609;49.466;8.468;2023-09-18T00:49:33;4.20;;;2.73;;
11111;SDS011;5609;49.466;8.468;2023-09-18T00:52:00;3.80;;;2.90;;
11111;SDS011;5609;49.466;8.468;2023-09-18T00:54:27;2.83;;;2.60;;
11111;SDS011;5609;49.466;8.468;2023-09-18T00:56:54;4.57;;;3.00;;
11111;SDS011;5609;49.466;8.468;2023-09-18T00:59:23;5.20;;;2.70;;
11111;SDS011;5609;49.466;8.468;2023-09-18T01:01:50;3.20;;;3.00;;
11111;SDS011;5609;49.466;8.468;2023-09-18T01:04:17;3.33;;;3.03;;
11111;SDS011;5609;49.466;8.468;2023-09-18T01:06:44;3.93;;;3.03;;
11111;SDS011;5609;49.466;8.468;2023-09-18T01:09:12;3.97;;;3.07;;
11111;SDS011;5609;49.466;8.468;2023-09-18T01:11:42;2.80;;;2.60;;
11111;SDS011;5609;49.466;8.468;2023-09-18T01:14:12;3.27;;;2.87;;
11111;SDS011;5609;49.466;8.468;2023-09-18T01:16:44;4.30;;;2.80;;
11111;SDS011;5609;49.466;8.468;2023-09-18T01:19:15;4.47;;;3.17;;
11111;SDS011;5609;49.466;8.468;2023-09-18T01:21:44;4.17;;;3.00;;
11111;SDS011;5609;49.466;8.468;2023-09-18T01:24:13;5.77;;;3.30;;
11111;SDS011;5609;49.466;8.468;2023-09-18T01:26:40;5.83;;;3.40;;
11111;SDS011;5609;49.466;8.468;2023-09-18T01:29:07;3.57;;;2.90;;
11111;SDS011;5609;49.466;8.468;2023-09-18T01:31:34;3.17;;;2.87;;
11111;SDS011;5609;49.466;8.468;2023-09-18T01:34:00;3.57;;;2.97;;
11111;SDS011;5609;49.466;8.468;2023-09-18T01:36:28;3.93;;;2.90;;
11111;SDS011;5609;49.466;8.468;2023-09-18T01:38:55;4.10;;;2.67;;
11111;SDS011;5609;49.466;8.468;2023-09-18T01:41:24;3.57;;;2.93;;
11111;SDS011;5609;49.466;8.468;2023-09-18T01:43:51;3.30;;;3.00;;
11111;SDS011;5609;49.466;8.468;2023-09-18T01:46:18;4.13;;;2.90;;
11111;SDS011;5609;49.466;8.468;2023-09-18T01:48:45;3.97;;;2.97;;
11111;SDS011;5609;49.466;8.468;2023-09-18T01:51:13;4.80;;;3.10;;
11111;SDS011;5609;49.466;8.468;2023-09-18T01:53:40;3.40;;;3.10;;
11111;SDS011;5609;49.466;8.468;2023-09-18T01:56:07;3.27;;;2.97;;
11111;SDS011;5609;49.466;8.468;2023-09-18T01:58:36;4.23;;;3.30;;
11111;SDS011;5609;49.466;8.468;2023-09-18T02:01:03;7.97;;;4.50;;
11111;SDS011;5609;49.466;8.468;2023-09-18T02:03:30;6.67;;;3.70;;
11111;SDS011;5609;49.466;8.468;2023-09-18T02:05:57;4.20;;;3.80;;
11111;SDS011;5609;49.466;8.468;2023-09-18T02:08:24;8.37;;;5.90;;
11111;SDS011;5609;49.466;8.468;2023-09-18T02:10:51;4.83;;;3.70;;
11111;SDS011;5609;49.466;8.468;2023-09-18T02:13:18;5.93;;;4.33;;
11111;SDS011;5609;49.466;8.468;2023-09-18T02:15:46;5.77;;;3.90;;
11111;SDS011;5609;49.466;8.468;2023-09-18T02:18:13;7.73;;;6.80;;
11111;SDS011;5609;49.466;8.468;2023-09-18T02:20:40;5.07;;;4.63;;
11111;SDS011;5609;49.466;8.468;2023-09-18T02:23:09;5.87;;;4.23;;
11111;SDS011;5609;49.466;8.468;2023-09-18T02:25:36;6.23;;;4.10;;
11111;SDS011;5609;49.466;8.468;2023-09-18T02:28:05;4.97;;;4.47;;
11111;SDS011;5609;49.466;8.468;2023-09-18T02:30:32;7.73;;;5.67;;
11111;SDS011;5609;49.466;8.468;2023-09-18T02:33:00;4.90;;;4.40;;
11111;SDS011;5609;49.466;8.468;2023-09-18T02:35:29;4.53;;;4.07;;
11111;SDS011;5609;49.466;8.468;2023-09-18T02:37:56;5.77;;;4.20;;
11111;SDS011;5609;49.466;8.468;2023-09-18T02:40:24;5.20;;;4.30;;
11111;SDS011;5609;49.466;8.468;2023-09-18T02:42:51;5.80;;;4.53;;
11111;SDS011;5609;49.466;8.468;2023-09-18T02:45:18;4.63;;;4.23;;
11111;SDS011;5609;49.466;8.468;2023-09-18T02:47:45;5.03;;;4.03;;
11111;SDS011;5609;49.466;8.468;2023-09-18T02:50:14;6.40;;;4.97;;
11111;SDS011;5609;49.466;8.468;2023-09-18T02:52:41;4.33;;;3.80;;
11111;SDS011;5609;49.466;8.468;2023-09-18T02:55:08;6.93;;;4.20;;
11111;SDS011;5609;49.466;8.468;2023-09-18T02:57:35;4.77;;;4.37;;
11111;SDS011;5609;49.466;8.468;2023-09-18T03:00:03;5.53;;;4.43;;
11111;SDS011;5609;49.466;8.468;2023-09-18T03:02:30;5.87;;;3.80;;
11111;SDS011;5609;49.466;8.468;2023-09-18T03:04:57;6.13;;;5.53;;
11111;SDS011;5609;49.466;8.468;2023-09-18T03:07:25;4.40;;;4.00;;
11111;SDS011;5609;49.466;8.468;2023-09-18T03:09:54;5.97;;;3.97;;
11111;SDS011;5609;49.466;8.468;2023-09-18T03:12:21;4.83;;;3.90;;
11111;SDS011;5609;49.466;8.468;2023-09-18T03:14:48;14.07;;;10.57;;
11111;SDS011;5609;49.466;8.468;2023-09-18T03:17:15;10.97;;;9.73;;
11111;SDS011;5609;49.466;8.468;2023-09-18T03:19:42;4.80;;;4.03;;
11111;SDS011;5609;49.466;8.468;2023-09-18T03:22:09;4.50;;;4.10;;
11111;SDS011;5609;49.466;8.468;2023-09-18T03:24:37;6.73;;;5.33;;
11111;SDS011;5609;49.466;8.468;2023-09-18T03:27:05;5.13;;;4.10;;
11111;SDS011;5609;49.466;8.468;2023-09-18T03:29:32;5.10;;;4.20;;
11111;SDS011;5609;49.466;8.468;2023-09-18T03:31:59;4.93;;;4.27;;
11111;SDS011;5609;49.466;8.468;2023-09-18T03:34:26;5.93;;;4.37;;
11111;SDS011;5609;49.466;8.468;2023-09-18T03:36:53;8.70;;;7.40;;
11111;SDS011;5609;49.466;8.468;2023-09-18T03:39:20;6.47;;;4.37;;
11111;SDS011;5609;49.466;8.468;2023-09-18T03:41:48;5.37;;;3.90;;
11111;SDS011;5609;49.466;8.468;2023-09-18T03:44:15;5.23;;;4.57;;
11111;SDS011;5609;49.466;8.468;2023-09-18T03:46:42;5.80;;;5.17;;
11111;SDS011;5609;49.466;8.468;2023-09-18T03:49:09;7.20;;;4.30;;
11111;SDS011;5609;49.466;8.468;2023-09-18T03:51:36;5.30;;;3.90;;
11111;SDS011;5609;49.466;8.468;2023-09-18T03:54:03;5.53;;;3.80;;
11111;SDS011;5609;49.466;8.468;2023-09-18T03:56:30;8.07;;;4.20;;
11111;SDS011;5609;49.466;8.468;2023-09-18T03:58:59;8.00;;;3.90;;
11111;SDS011;5609;49.466;8.468;2023-09-18T04:01:27;9.13;;;3.87;;
11111;SDS011;5609;49.466;8.468;2023-09-18T04:03:54;8.23;;;3.63;;
11111;SDS011;5609;49.466;8.468;2023-09-18T04:06:21;8.00;;;3.70;;
11111;SDS011;5609;49.466;8.468;2023-09-18T04:08:49;11.20;;;3.57;;
11111;SDS011;5609;49.466;8.468;2023-09-18T04:11:16;7.87;;;3.80;;
11111;SDS011;5609;49.466;8.468;2023-09-18T04:13:47;12.93;;;4.07;;
11111;SDS011;5609;49.466;8.468;2023-09-18T04:16:16;13.97;;;4.23;;
11111;SDS011;5609;49.466;8.468;2023-09-18T04:18:43;12.83;;;4.23;;
11111;SDS011;5609;49.466;8.468;2023-09-18T04:21:10;10.67;;;4.63;;
11111;SDS011;5609;49.466;8.468;2023-09-18T04:23:37;9.67;;;4.30;;
11111;SDS011;5609;49.466;8.468;2023-09-18T04:26:04;11.47;;;4.60;;
11111;SDS011;5609;49.466;8.468;2023-09-18T04:28:31;9.60;;;4.43;;
11111;SDS011;5609;49.466;8.468;2023-09-18T04:30:58;9.70;;;4.30;;
11111;SDS011;5609;49.466;8.468;2023-09-18T04:33:26;11.17;;;4.03;;
11111;SDS011;5609;49.466;8.468;2023-09-18T04:35:54;8.87;;;3.93;;
11111;SDS011;5609;49.466;8.468;2023-09-18T04:38:21;12.47;;;5.97;;
11111;SDS011;5609;49.466;8.468;2023-09-18T04:40:48;9.97;;;3.60;;
11111;SDS011;5609;49.466;8.468;2023-09-18T04:43:15;8.53;;;3.80;;
11111;SDS011;5609;49.466;8.468;2023-09-18T04:45:42;8.33;;;3.70;;
11111;SDS011;5609;49.466;8.468;2023-09-18T04:48:09;8.73;;;3.73;;
11111;SDS011;5609;49.466;8.468;2023-09-18T04:50:37;11.97;;;3.90;;
11111;SDS011;5609;49.466;8.468;2023-09-18T04:53:04;6.97;;;3.63;;
11111;SDS011;5609;49.466;8.468;2023-09-18T04:55:31;12.47;;;4.30;;
11111;SDS011;5609;49.466;8.468;2023-09-18T04:57:58;8.37;;;3.50;;
11111;SDS011;5609;49.466;8.468;2023-09-18T05:00:25;10.40;;;4.73;;
11111;SDS011;5609;49.466;8.468;2023-09-18T05:02:54;10.60;;;4.07;;
11111;SDS011;5609;49.466;8.468;2023-09-18T05:05:21;10.80;;;4.00;;
11111;SDS011;5609;49.466;8.468;2023-09-18T05:07:49;8.07;;;3.57;;
11111;SDS011;5609;49.466;8.468;2023-09-18T05:10:16;7.77;;;3.80;;
11111;SDS011;5609;49.466;8.468;2023-09-18T05:12:43;9.97;;;4.00;;
11111;SDS011;5609;49.466;8.468;2023-09-18T05:15:11;9.63;;;4.00;;
11111;SDS011;5609;49.466;8.468;2023-09-18T05:17:39;9.53;;;3.87;;
11111;SDS011;5609;49.466;8.468;2023-09-18T05:20:07;8.13;;;4.10;;
11111;SDS011;5609;49.466;8.468;2023-09-18T05:22:36;9.13;;;3.60;;
11111;SDS011;5609;49.466;8.468;2023-09-18T05:25:05;11.60;;;3.57;;
11111;SDS011;5609;49.466;8.468;2023-09-18T05:27:32;6.27;;;3.63;;
11111;SDS011;5609;49.466;8.468;2023-09-18T05:29:59;9.77;;;3.70;;
11111;SDS011;5609;49.466;8.468;2023-09-18T05:32:26;11.67;;;4.07;;
11111;SDS011;5609;49.466;8.468;2023-09-18T05:34:53;9.20;;;3.90;;
11111;SDS011;5609;49.466;8.468;2023-09-18T05:37:20;8.47;;;3.87;;
11111;SDS011;5609;49.466;8.468;2023-09-18T05:39:47;7.53;;;4.07;;
11111;SDS011;5609;49.466;8.468;2023-09-18T05:42:15;7.97;;;3.80;;
11111;SDS011;5609;49.466;8.468;2023-09-18T05:44:42;10.93;;;4.00;;
11111;SDS011;5609;49.466;8.468;2023-09-18T05:47:09;11.23;;;4.00;;
11111;SDS011;5609;49.466;8.468;2023-09-18T05:49:37;6.53;;;3.60;;
11111;SDS011;5609;49.466;8.468;2023-09-18T05:52:05;9.07;;;3.67;;
11111;SDS011;5609;49.466;8.468;2023-09-18T05:54:32;7.70;;;3.53;;
11111;SDS011;5609;49.466;8.468;2023-09-18T05:56:58;8.23;;;3.93;;
11111;SDS011;5609;49.466;8.468;2023-09-18T05:59:28;16.73;;;9.80;;
11111;SDS011;5609;49.466;8.468;2023-09-18T06:01:55;8.47;;;5.10;;
11111;SDS011;5609;49.466;8.468;2023-09-18T06:04:22;6.97;;;3.80;;
11111;SDS011;5609;49.466;8.468;2023-09-18T06:06:49;5.70;;;3.50;;
11111;SDS011;5609;49.466;8.468;2023-09-18T06:09:17;8.63;;;3.70;;
11111;SDS011;5609;49.466;8.468;2023-09-18T06:11:44;11.60;;;3.90;;
11111;SDS011;5609;49.466;8.468;2023-09-18T06:14:11;7.27;;;3.57;;
11111;SDS011;5609;49.466;8.468;2023-09-18T06:16:39;9.47;;;3.83;;
11111;SDS011;5609;49.466;8.468;2023-09-18T06:19:06;10.20;;;3.97;;
11111;SDS011;5609;49.466;8.468;2023-09-18T06:21:33;6.97;;;3.37;;
11111;SDS011;5609;49.466;8.468;2023-09-18T06:24:00;9.07;;;3.63;;
11111;SDS011;5609;49.466;8.468;2023-09-18T06:26:27;8.60;;;3.60;;
11111;SDS011;5609;49.466;8.468;2023-09-18T06:28:54;7.90;;;3.70;;
11111;SDS011;5609;49.466;8.468;2023-09-18T06:31:21;7.30;;;3.50;;
11111;SDS011;5609;49.466;8.468;2023-09-18T06:33:49;10.50;;;3.77;;
11111;SDS011;5609;49.466;8.468;2023-09-18T06:36:17;7.87;;;3.90;;
11111;SDS011;5609;49.466;8.468;2023-09-18T06:38:44;6.63;;;3.47;;
11111;SDS011;5609;49.466;8.468;2023-09-18T06:41:11;7.87;;;3.73;;
11111;SDS011;5609;49.466;8.468;2023-09-18T06:43:39;9.70;;;3.63;;
11111;SDS011;5609;49.466;8.468;2023-09-18T06:46:06;8.47;;;3.70;;
11111;SDS011;5609;49.466;8.468;2023-09-18T06:48:34;6.47;;;3.10;;
11111;SDS011;5609;49.466;8.468;2023-09-18T06:51:02;9.77;;;3.30;;
11111;SDS011;5609;49.466;8.468;2023-09-18T06:53:31;7.60;;;3.10;;
11111;SDS011;5609;49.466;8.468;2023-09-18T06:55:58;7.03;;;3.10;;
11111;SDS011;5609;49.466;8.468;2023-09-18T06:58:25;6.57;;;2.90;;
11111;SDS011;5609;49.466;8.468;2023-09-18T07:00:52;7.27;;;2.43;;
11111;SDS011;5609;49.466;8.468;2023-09-18T07:03:19;8.43;;;2.77;;
11111;SDS011;5609;49.466;8.468;2023-09-18T07:05:48;4.80;;;2.40;;
11111;SDS011;5609;49.466;8.468;2023-09-18T07:08:16;5.77;;;2.30;;
11111;SDS011;5609;49.466;8.468;2023-09-18T07:10:48;6.60;;;2.30;;
11111;SDS011;5609;49.466;8.468;2023-09-18T07:13:16;4.17;;;1.83;;
11111;SDS011;5609;49.466;8.468;2023-09-18T07:15:43;4.10;;;2.27;;
11111;SDS011;5609;49.466;8.468;2023-09-18T07:18:10;5.83;;;2.27;;
11111;SDS011;5609;49.466;8.468;2023-09-18T07:20:39;5.37;;;1.93;;
11111;SDS011;5609;49.466;8.468;2023-09-18T07:23:06;7.17;;;2.10;;
11111;SDS011;5609;49.466;8.468;2023-09-18T07:25:35;5.93;;;2.50;;
11111;SDS011;5609;49.466;8.468;2023-09-18T07:28:03;6.93;;;2.23;;
11111;SDS011;5609;49.466;8.468;2023-09-18T07:30:31;3.43;;;1.83;;
11111;SDS011;5609;49.466;8.468;2023-09-18T07:32:57;4.73;;;2.10;;
11111;SDS011;5609;49.466;8.468;2023-09-18T07:35:25;6.23;;;2.17;;
11111;SDS011;5609;49.466;8.468;2023-09-18T07:37:52;5.17;;;2.13;;
11111;SDS011;5609;49.466;8.468;2023-09-18T07:40:19;4.67;;;1.93;;
11111;SDS011;5609;49.466;8.468;2023-09-18T07:42:48;3.17;;;1.80;;
11111;SDS011;5609;49.466;8.468;2023-09-18T07:45:15;4.83;;;2.20;;
11111;SDS011;5609;49.466;8.468;2023-09-18T07:47:42;3.53;;;1.80;;
11111;SDS011;5609;49.466;8.468;2023-09-18T07:50:10;5.07;;;2.27;;
11111;SDS011;5609;49.466;8.468;2023-09-18T07:52:37;4.53;;;2.20;;
11111;SDS011;5609;49.466;8.468;2023-09-18T07:55:04;8.50;;;2.20;;
11111;SDS011;5609;49.466;8.468;2023-09-18T07:57:31;6.07;;;2.00;;
11111;SDS011;5609;49.466;8.468;2023-09-18T08:00:00;7.00;;;2.37;;
11111;SDS011;5609;49.466;8.468;2023-09-18T08:02:32;5.33;;;1.90;;
11111;SDS011;5609;49.466;8.468;2023-09-18T08:04:59;6.67;;;2.17;;
11111;SDS011;5609;49.466;8.468;2023-09-18T08:07:27;5.23;;;1.90;;
11111;SDS011;5609;49.466;8.468;2023-09-18T08:09:54;6.67;;;2.40;;
11111;SDS011;5609;49.466;8.468;2023-09-18T08:12:21;5.63;;;2.40;;
11111;SDS011;5609;49.466;8.468;2023-09-18T08:14:48;6.73;;;2.20;;
11111;SDS011;5609;49.466;8.468;2023-09-18T08:17:16;4.90;;;2.07;;
11111;SDS011;5609;49.466;8.468;2023-09-18T08:19:43;5.73;;;1.97;;
11111;SDS011;5609;49.466;8.468;2023-09-18T08:22:10;4.57;;;1.83;;
11111;SDS011;5609;49.466;8.468;2023-09-18T08:24:40;3.97;;;1.90;;
11111;SDS011;5609;49.466;8.468;2023-09-18T08:27:08;4.77;;;1.90;;
11111;SDS011;5609;49.466;8.468;2023-09-18T08:29:36;3.53;;;2.00;;
11111;SDS011;5609;49.466;8.468;2023-09-18T08:32:03;3.13;;;2.00;;
11111;SDS011;5609;49.466;8.468;2023-09-18T08:34:32;5.43;;;2.00;;
11111;SDS011;5609;49.466;8.468;2023-09-18T08:36:59;4.60;;;2.10;;
11111;SDS011;5609;49.466;8.468;2023-09-18T08:39:26;4.60;;;1.73;;
11111;SDS011;5609;49.466;8.468;2023-09-18T08:41:54;3.57;;;1.80;;
11111;SDS011;5609;49.466;8.468;2023-09-18T08:44:24;2.80;;;1.87;;
11111;SDS011;5609;49.466;8.468;2023-09-18T08:46:53;5.70;;;2.10;;
11111;SDS011;5609;49.466;8.468;2023-09-18T08:49:21;6.27;;;1.90;;
11111;SDS011;5609;49.466;8.468;2023-09-18T08:51:50;4.37;;;1.80;;
11111;SDS011;5609;49.466;8.468;2023-09-18T08:54:17;3.50;;;1.73;;
11111;SDS011;5609;49.466;8.468;2023-09-18T08:56:44;4.23;;;1.83;;
11111;SDS011;5609;49.466;8.468;2023-09-18T08:59:11;4.97;;;1.83;;
11111;SDS011;5609;49.466;8.468;2023-09-18T09:01:39;4.70;;;2.00;;
11111;SDS011;5609;49.466;8.468;2023-09-18T09:04:06;4.27;;;1.80;;
11111;SDS011;5609;49.466;8.468;2023-09-18T09:06:33;3.90;;;1.67;;
11111;SDS011;5609;49.466;8.468;2023-09-18T09:09:02;3.73;;;1.47;;
11111;SDS011;5609;49.466;8.468;2023-09-18T09:11:29;3.93;;;1.63;;
11111;SDS011;5609;49.466;8.468;2023-09-18T09:14:08;3.10;;;1.70;;
11111;SDS011;5609;49.466;8.468;2023-09-18T09:16:36;2.53;;;1.70;;
11111;SDS011;5609;49.466;8.468;2023-09-18T09:19:05;3.33;;;1.60;;
11111;SDS011;5609;49.466;8.468;2023-09-18T09:21:38;4.33;;;1.80;;
11111;SDS011;5609;49.466;8.468;2023-09-18T09:24:07;4.13;;;1.90;;
11111;SDS011;5609;49.466;8.468;2023-09-18T09:26:39;4.97;;;1.70;;
11111;SDS011;5609;49.466;8.468;2023-09-18T09:29:15;3.63;;;1.60;;
11111;SDS011;5609;49.466;8.468;2023-09-18T09:31:43;3.73;;;1.77;;
11111;SDS011;5609;49.466;8.468;2023-09-18T09:34:10;6.53;;;1.93;;
11111;SDS011;5609;49.466;8.468;2023-09-18T09:36:50;7.67;;;1.80;;
11111;SDS011;5609;49.466;8.468;2023-09-18T09:39:19;3.63;;;1.90;;
11111;SDS011;5609;49.466;8.468;2023-09-18T09:41:49;4.07;;;1.80;;
11111;SDS011;5609;49.466;8.468;2023-09-18T09:44:17;4.93;;;1.73;;
11111;SDS011;5609;49.466;8.468;2023-09-18T09:46:45;3.77;;;1.70;;
11111;SDS011;5609;49.466;8.468;2023-09-18T09:49:13;5.50;;;2.00;;
11111;SDS011;5609;49.466;8.468;2023-09-18T09:51:41;5.63;;;1.90;;
11111;SDS011;5609;49.466;8.468;2023-09-18T09:54:08;5.10;;;2.00;;
11111;SDS011;5609;49.466;8.468;2023-09-18T09:56:44;4.60;;;1.73;;
11111;SDS011;5609;49.466;8.468;2023-09-18T09:59:11;3.70;;;1.80;;
11111;SDS011;5609;49.466;8.468;2023-09-18T10:01:39;2.80;;;1.73;;
11111;SDS011;5609;49.466;8.468;2023-09-18T10:04:09;3.60;;;1.87;;
11111;SDS011;5609;49.466;8.468;2023-09-18T10:06:36;3.37;;;1.73;;
11111;SDS011;5609;49.466;8.468;2023-09-18T10:09:03;3.23;;;1.93;;
11111;SDS011;5609;49.466;8.468;2023-09-18T10:11:32;4.30;;;1.90;;
11111;SDS011;5609;49.466;8.468;2023-09-18T10:14:04;4.13;;;1.80;;
11111;SDS011;5609;49.466;8.468;2023-09-18T10:16:36;2.47;;;1.53;;
11111;SDS011;5609;49.466;8.468;2023-09-18T10:19:05;3.90;;;1.83;;
11111;SDS011;5609;49.466;8.468;2023-09-18T10:21:35;6.67;;;1.87;;
11111;SDS011;5609;49.466;8.468;2023-09-18T10:24:09;3.07;;;1.63;;
11111;SDS011;5609;49.466;8.468;2023-09-18T10:26:40;4.23;;;1.67;;
11111;SDS011;5609;49.466;8.468;2023-09-18T10:29:10;4.80;;;1.60;;
11111;SDS011;5609;49.466;8.468;2023-09-18T10:31:39;5.27;;;1.97;;
11111;SDS011;5609;49.466;8.468;2023-09-18T10:34:07;4.43;;;1.90;;
11111;SDS011;5609;49.466;8.468;2023-09-18T10:36:35;3.57;;;1.60;;
11111;SDS011;5609;49.466;8.468;2023-09-18T10:39:03;4.40;;;1.90;;
11111;SDS011;5609;49.466;8.468;2023-09-18T10:41:35;6.83;;;1.80;;
11111;SDS011;5609;49.466;8.468;2023-09-18T10:44:02;3.27;;;1.80;;
11111;SDS011;5609;49.466;8.468;2023-09-18T10:46:31;4.13;;;1.90;;
11111;SDS011;5609;49.466;8.468;2023-09-18T10:48:59;4.90;;;2.00;;
11111;SDS011;5609;49.466;8.468;2023-09-18T10:51:28;4.70;;;1.83;;
11111;SDS011;5609;49.466;8.468;2023-09-18T10:53:56;5.13;;;1.80;;
11111;SDS011;5609;49.466;8.468;2023-09-18T10:56:23;3.80;;;1.80;;
11111;SDS011;5609;49.466;8.468;2023-09-18T10:58:55;6.57;;;2.00;;
11111;SDS011;5609;49.466;8.468;2023-09-18T11:01:23;4.77;;;1.63;;
11111;SDS011;5609;49.466;8.468;2023-09-18T11:03:53;5.07;;;1.97;;
11111;SDS011;5609;49.466;8.468;2023-09-18T11:06:24;5.60;;;1.87;;
11111;SDS011;5609;49.466;8.468;2023-09-18T11:08:58;3.73;;;1.83;;
11111;SDS011;5609;49.466;8.468;2023-09-18T11:11:29;6.87;;;2.00;;
11111;SDS011;5609;49.466;8.468;2023-09-18T11:13:58;3.57;;;1.93;;
11111;SDS011;5609;49.466;8.468;2023-09-18T11:16:33;3.93;;;1.73;;
11111;SDS011;5609;49.466;8.468;2023-09-18T11:19:09;3.47;;;1.93;;
11111;SDS011;5609;49.466;8.468;2023-09-18T11:21:37;3.83;;;1.60;;
11111;SDS011;5609;49.466;8.468;2023-09-18T11:24:04;4.67;;;1.90;;
11111;SDS011;5609;49.466;8.468;2023-09-18T11:26:36;4.77;;;1.73;;
11111;SDS011;5609;49.466;8.468;2023-09-18T11:29:04;4.70;;;1.80;;
11111;SDS011;5609;49.466;8.468;2023-09-18T11:31:40;3.90;;;1.80;;
11111;SDS011;5609;49.466;8.468;2023-09-18T11:34:13;6.80;;;1.93;;
11111;SDS011;5609;49.466;8.468;2023-09-18T11:36:40;4.47;;;1.70;;
11111;SDS011;5609;49.466;8.468;2023-09-18T11:39:08;4.53;;;1.70;;
11111;SDS011;5609;49.466;8.468;2023-09-18T11:41:36;3.30;;;1.73;;
11111;SDS011;5609;49.466;8.468;2023-09-18T11:46:50;4.47;;;2.00;;
11111;SDS011;5609;49.466;8.468;2023-09-18T11:49:20;4.13;;;1.80;;
11111;SDS011;5609;49.466;8.468;2023-09-18T11:51:48;5.90;;;1.90;;
11111;SDS011;5609;49.466;8.468;2023-09-18T11:54:15;4.57;;;1.80;;
11111;SDS011;5609;49.466;8.468;2023-09-18T11:56:42;4.60;;;1.50;;
11111;SDS011;5609;49.466;8.468;2023-09-18T11:59:09;3.43;;;1.80;;
11111;SDS011;5609;49.466;8.468;2023-09-18T12:01:37;3.47;;;1.60;;
11111;SDS011;5609;49.466;8.468;2023-09-18T12:04:05;3.63;;;1.80;;
11111;SDS011;5609;49.466;8.468;2023-09-18T12:06:34;4.57;;;1.77;;
11111;SDS011;5609;49.466;8.468;2023-09-18T12:09:02;5.07;;;1.57;;
11111;SDS011;5609;49.466;8.468;2023-09-18T12:11:29;3.93;;;1.90;;
11111;SDS011;5609;49.466;8.468;2023-09-18T12:13:59;3.37;;;1.70;;
11111;SDS011;5609;49.466;8.468;2023-09-18T12:16:29;2.67;;;1.43;;
11111;SDS011;5609;49.466;8.468;2023-09-18T12:18:56;4.07;;;1.67;;
11111;SDS011;5609;49.466;8.468;2023-09-18T12:21:24;3.27;;;1.63;;
11111;SDS011;5609;49.466;8.468;2023-09-18T12:23:52;3.33;;;1.80;;
11111;SDS011;5609;49.466;8.468;2023-09-18T12:26:19;2.63;;;1.70;;
11111;SDS011;5609;49.466;8.468;2023-09-18T12:28:48;5.00;;;1.70;;
11111;SDS011;5609;49.466;8.468;2023-09-18T12:31:15;4.33;;;1.70;;
11111;SDS011;5609;49.466;8.468;2023-09-18T12:33:43;3.20;;;1.60;;
11111;SDS011;5609;49.466;8.468;2023-09-18T12:36:12;3.67;;;1.60;;
11111;SDS011;5609;49.466;8.468;2023-09-18T12:38:39;3.70;;;1.50;;
11111;SDS011;5609;49.466;8.468;2023-09-18T12:41:08;2.70;;;1.67;;
11111;SDS011;5609;49.466;8.468;2023-09-18T12:43:39;3.70;;;1.80;;
11111;SDS011;5609;49.466;8.468;2023-09-18T12:46:06;4.50;;;1.67;;
11111;SDS011;5609;49.466;8.468;2023-09-18T12:48:36;4.50;;;1.90;;
11111;SDS011;5609;49.466;8.468;2023-09-18T12:51:03;3.70;;;1.60;;
11111;SDS011;5609;49.466;8.468;2023-09-18T12:53:31;4.73;;;1.70;;
11111;SDS011;5609;49.466;8.468;2023-09-18T12:56:04;2.10;;;1.43;;
11111;SDS011;5609;49.466;8.468;2023-09-18T12:58:32;3.23;;;1.60;;
11111;SDS011;5609;49.466;8.468;2023-09-18T13:01:03;3.20;;;1.50;;
11111;SDS011;5609;49.466;8.468;2023-09-18T13:03:32;4.27;;;1.60;;
11111;SDS011;5609;49.466;8.468;2023-09-18T13:06:06;2.37;;;1.43;;
11111;SDS011;5609;49.466;8.468;2023-09-18T13:08:33;3.23;;;1.60;;
11111;SDS011;5609;49.466;8.468;2023-09-18T13:11:01;2.80;;;1.47;;
11111;SDS011;5609;49.466;8.468;2023-09-18T13:13:29;2.83;;;1.50;;
11111;SDS011;5609;49.466;8.468;2023-09-18T13:15:58;2.77;;;1.40;;
11111;SDS011;5609;49.466;8.468;2023-09-18T13:18:26;4.03;;;1.60;;
11111;SDS011;5609;49.466;8.468;2023-09-18T13:20:53;3.87;;;1.60;;
11111;SDS011;5609;49.466;8.468;2023-09-18T13:23:20;3.37;;;1.87;;
11111;SDS011;5609;49.466;8.468;2023-09-18T13:25:47;2.07;;;1.60;;
11111;SDS011;5609;49.466;8.468;2023-09-18T13:28:14;3.10;;;1.57;;
11111;SDS011;5609;49.466;8.468;2023-09-18T13:30:43;2.33;;;1.50;;
11111;SDS011;5609;49.466;8.468;2023-09-18T13:33:12;2.67;;;1.63;;
11111;SDS011;5609;49.466;8.468;2023-09-18T13:35:41;4.17;;;1.43;;
11111;SDS011;5609;49.466;8.468;2023-09-18T13:38:08;3.63;;;1.60;;
11111;SDS011;5609;49.466;8.468;2023-09-18T13:40:36;6.30;;;1.50;;
11111;SDS011;5609;49.466;8.468;2023-09-18T13:43:03;2.83;;;1.47;;
11111;SDS011;5609;49.466;8.468;2023-09-18T13:45:31;2.50;;;1.30;;
11111;SDS011;5609;49.466;8.468;2023-09-18T13:48:00;2.63;;;1.50;;
11111;SDS011;5609;49.466;8.468;2023-09-18T13:50:28;2.97;;;1.47;;
11111;SDS011;5609;49.466;8.468;2023-09-18T13:52:55;4.33;;;1.50;;
11111;SDS011;5609;49.466;8.468;2023-09-18T13:55:22;3.33;;;1.47;;
11111;SDS011;5609;49.466;8.468;2023-09-18T13:57:49;3.57;;;1.53;;
11111;SDS011;5609;49.466;8.468;2023-09-18T14:00:17;2.60;;;1.40;;
11111;SDS011;5609;49.466;8.468;2023-09-18T14:02:44;2.30;;;1.43;;
11111;SDS011;5609;49.466;8.468;2023-09-18T14:05:11;4.23;;;1.50;;
11111;SDS011;5609;49.466;8.468;2023-09-18T14:07:39;2.13;;;1.40;;
11111;SDS011;5609;49.466;8.468;2023-09-18T14:10:07;3.93;;;1.37;;
11111;SDS011;5609;49.466;8.468;2023-09-18T14:12:35;4.10;;;1.40;;
11111;SDS011;5609;49.466;8.468;2023-09-18T14:15:02;3.50;;;1.50;;
11111;SDS011;5609;49.466;8.468;2023-09-18T14:17:30;3.87;;;1.50;;
11111;SDS011;5609;49.466;8.468;2023-09-18T14:19:57;2.07;;;1.40;;
11111;SDS011;5609;49.466;8.468;2023-09-18T14:22:24;1.70;;;1.10;;
11111;SDS011;5609;49.466;8.468;2023-09-18T14:24:52;2.60;;;1.33;;
11111;SDS011;5609;49.466;8.468;2023-09-18T14:27:19;3.30;;;1.40;;
11111;SDS011;5609;49.466;8.468;2023-09-18T14:29:46;2.20;;;1.40;;
11111;SDS011;5609;49.466;8.468;2023-09-18T14:32:13;3.97;;;1.30;;
11111;SDS011;5609;49.466;8.468;2023-09-18T14:34:41;2.73;;;1.50;;
11111;SDS011;5609;49.466;8.468;2023-09-18T14:37:08;1.90;;;1.30;;
11111;SDS011;5609;49.466;8.468;2023-09-18T14:39:35;2.97;;;1.33;;
11111;SDS011;5609;49.466;8.468;2023-09-18T14:42:04;3.70;;;1.53;;
11111;SDS011;5609;49.466;8.468;2023-09-18T14:44:31;1.90;;;1.30;;
11111;SDS011;5609;49.466;8.468;2023-09-18T14:46:58;2.30;;;1.13;;
11111;SDS011;5609;49.466;8.468;2023-09-18T14:49:25;3.10;;;1.43;;
11111;SDS011;5609;49.466;8.468;2023-09-18T14:51:53;2.70;;;1.40;;
11111;SDS011;5609;49.466;8.468;2023-09-18T14:54:20;2.83;;;1.20;;
11111;SDS011;5609;49.466;8.468;2023-09-18T14:56:47;1.73;;;1.30;;
11111;SDS011;5609;49.466;8.468;2023-09-18T14:59:15;1.80;;;1.30;;
11111;SDS011;5609;49.466;8.468;2023-09-18T15:01:42;2.57;;;1.40;;
11111;SDS011;5609;49.466;8.468;2023-09-18T15:04:09;1.93;;;1.47;;
11111;SDS011;5609;49.466;8.468;2023-09-18T15:06:36;3.03;;;1.30;;